Time;durP1;ratioP1;P1;durP2;ratioP2;P2;SDS_P1;SDS_P2;PMS_P1;PMS_P2;Temp;Humidity;BMP_temperature;BMP_pressure;BME280_temperature;BME280_humidity;BME280_pressure;Samples;Min_cycle;Max_cycle;Signal;HPM_P1;HPM_P2
2024/04/20 00:00:58;;;;;;;0.40;0.40;;;7.00;99.90;;;;;;4430800;32;20584;-62
2024/04/20 00:03:24;;;;;;;0.20;0.20;;;7.00;99.90;;;;;;4435453;32;20116;-62
2024/04/20 00:05:50;;;;;;;0.40;0.40;;;6.90;99.90;;;;;;4430375;32;20124;-62
2024/04/20 00:08:15;;;;;;;3.45;1.75;;;7.00;99.90;;;;;;4429946;32;20057;-62
2024/04/20 00:10:42;;;;;;;0.25;0.25;;;7.00;99.90;;;;;;4430709;32;20085;-60
2024/04/20 00:13:07;;;;;;;0.37;0.37;;;7.00;99.90;;;;;;4425520;32;20126;-60
2024/04/20 00:15:36;;;;;;;0.20;0.20;;;7.00;99.90;;;;;;4425990;32;20880;-60
2024/04/20 00:18:02;;;;;;;0.80;0.80;;;7.00;99.90;;;;;;4430725;32;20069;-59
2024/04/20 00:20:31;;;;;;;12.95;1.17;;;7.00;99.90;;;;;;4433645;32;20482;-59
2024/04/20 00:22:56;;;;;;;0.73;0.73;;;7.00;99.90;;;;;;4430311;32;20323;-64
2024/04/20 00:25:22;;;;;;;0.60;0.60;;;7.00;99.90;;;;;;4429376;32;20529;-60
2024/04/20 00:27:48;;;;;;;0.22;0.22;;;7.00;99.90;;;;;;4435045;32;20069;-61
2024/04/20 00:30:13;;;;;;;0.25;0.25;;;7.00;99.90;;;;;;4428471;32;20147;-60
2024/04/20 00:32:39;;;;;;;0.55;0.55;;;7.00;99.90;;;;;;4432966;32;20553;-61
2024/04/20 00:35:04;;;;;;;0.55;0.55;;;7.00;99.90;;;;;;4426830;32;20459;-60
2024/04/20 00:37:30;;;;;;;0.40;0.40;;;7.00;99.90;;;;;;4430585;32;20125;-60
2024/04/20 00:39:55;;;;;;;0.30;0.30;;;7.00;99.90;;;;;;4429106;32;20077;-60
2024/04/20 00:42:21;;;;;;;0.30;0.30;;;7.10;99.90;;;;;;4429609;32;20061;-61
2024/04/20 00:44:47;;;;;;;0.20;0.20;;;7.10;99.90;;;;;;4428142;32;20120;-60
2024/04/20 00:47:12;;;;;;;0.30;0.30;;;7.00;99.90;;;;;;4428769;32;20426;-60
2024/04/20 00:49:38;;;;;;;0.30;0.30;;;6.90;99.90;;;;;;4428295;32;20509;-60
2024/04/20 00:52:05;;;;;;;0.30;0.30;;;6.90;99.90;;;;;;4432780;32;20503;-60
2024/04/20 00:54:32;;;;;;;0.20;0.20;;;6.90;99.90;;;;;;4425148;32;20074;-60
2024/04/20 00:56:58;;;;;;;0.30;0.30;;;6.80;99.90;;;;;;4425214;32;20094;-60
2024/04/20 00:59:25;;;;;;;0.30;0.30;;;6.80;99.90;;;;;;4423031;32;20093;-60
2024/04/20 01:01:53;;;;;;;0.20;0.20;;;6.80;99.90;;;;;;4425646;32;20082;-60
2024/04/20 01:04:18;;;;;;;0.30;0.30;;;6.80;99.90;;;;;;4424276;32;20078;-61
2024/04/20 01:06:44;;;;;;;0.65;0.43;;;6.80;99.90;;;;;;4424419;32;20069;-60
2024/04/20 01:09:10;;;;;;;0.30;0.30;;;6.80;99.90;;;;;;4422680;32;20132;-60
2024/04/20 01:11:35;;;;;;;0.30;0.30;;;6.80;99.90;;;;;;4425652;32;20124;-60
2024/04/20 01:14:02;;;;;;;2.42;0.57;;;6.80;99.90;;;;;;4424872;32;20222;-61
2024/04/20 01:16:28;;;;;;;0.30;0.30;;;6.80;99.90;;;;;;4423096;32;20082;-60
2024/04/20 01:18:54;;;;;;;0.30;0.30;;;6.80;99.90;;;;;;4425760;32;20081;-60
2024/04/20 01:21:22;;;;;;;0.20;0.20;;;6.70;99.90;;;;;;4422028;32;20061;-60
2024/04/20 01:23:51;;;;;;;0.30;0.30;;;6.70;99.90;;;;;;4428014;32;20231;-62
2024/04/20 01:26:17;;;;;;;0.20;0.20;;;6.80;99.90;;;;;;4425874;32;20102;-61
2024/04/20 01:28:43;;;;;;;0.50;0.50;;;6.80;99.90;;;;;;4425041;32;20090;-61
2024/04/20 01:31:08;;;;;;;0.40;0.40;;;6.90;99.90;;;;;;4423715;32;20112;-60
2024/04/20 01:33:34;;;;;;;0.62;0.52;;;6.90;99.90;;;;;;4424833;32;20081;-61
2024/04/20 01:35:59;;;;;;;0.20;0.20;;;6.90;99.90;;;;;;4426269;32;20442;-59
2024/04/20 01:38:25;;;;;;;1.17;0.68;;;7.00;99.90;;;;;;4423933;32;20081;-60
2024/04/20 01:40:51;;;;;;;0.28;0.28;;;6.90;99.90;;;;;;4424336;32;20061;-61
2024/04/20 01:43:17;;;;;;;0.30;0.30;;;6.90;99.90;;;;;;4424515;32;20168;-60
2024/04/20 01:45:43;;;;;;;0.20;0.20;;;6.90;99.90;;;;;;4420731;32;20108;-60
2024/04/20 01:48:09;;;;;;;0.30;0.30;;;6.80;99.90;;;;;;4425365;32;20109;-61
2024/04/20 01:50:34;;;;;;;0.20;0.20;;;6.80;99.90;;;;;;4423895;32;20073;-61
2024/04/20 01:53:00;;;;;;;0.25;0.25;;;6.80;99.90;;;;;;4425880;32;20517;-61
2024/04/20 01:55:26;;;;;;;0.40;0.40;;;6.90;99.90;;;;;;4439996;32;20064;-61
2024/04/20 01:57:51;;;;;;;0.30;0.30;;;6.90;99.90;;;;;;4438721;32;20126;-61
2024/04/20 02:00:17;;;;;;;0.20;0.20;;;7.00;99.90;;;;;;4427505;32;20078;-61
2024/04/20 02:02:44;;;;;;;0.22;0.22;;;6.90;99.90;;;;;;4441459;32;20138;-61
2024/04/20 02:05:09;;;;;;;0.30;0.30;;;6.90;99.90;;;;;;4429000;32;20076;-61
2024/04/20 02:07:35;;;;;;;0.20;0.20;;;6.90;99.90;;;;;;4440875;32;20205;-61
2024/04/20 02:10:01;;;;;;;0.30;0.30;;;6.90;99.90;;;;;;4438492;32;20115;-61
2024/04/20 02:12:27;;;;;;;0.30;0.30;;;7.00;99.90;;;;;;4429666;32;20126;-60
2024/04/20 02:14:52;;;;;;;0.30;0.30;;;7.10;99.90;;;;;;4439377;32;20084;-60
2024/04/20 02:17:18;;;;;;;0.30;0.30;;;7.10;99.90;;;;;;4437224;32;20097;-61
2024/04/20 02:19:43;;;;;;;0.30;0.30;;;7.10;99.90;;;;;;4439069;32;20057;-61
2024/04/20 02:22:09;;;;;;;0.37;0.37;;;7.00;99.90;;;;;;4440291;32;20438;-60
2024/04/20 02:24:35;;;;;;;0.32;0.32;;;6.90;99.90;;;;;;4440615;32;20081;-61
2024/04/20 02:27:01;;;;;;;0.20;0.20;;;7.00;99.90;;;;;;4440187;32;20141;-61
2024/04/20 02:29:26;;;;;;;0.30;0.30;;;7.00;99.90;;;;;;4440707;32;20075;-61
2024/04/20 02:31:52;;;;;;;0.20;0.20;;;7.10;99.90;;;;;;4440615;32;20101;-61
2024/04/20 02:34:18;;;;;;;0.30;0.30;;;7.00;99.90;;;;;;4439154;32;20068;-61
2024/04/20 02:36:43;;;;;;;0.20;0.20;;;7.00;99.90;;;;;;4440417;32;20105;-61
2024/04/20 02:39:09;;;;;;;0.30;0.30;;;6.90;99.90;;;;;;4429513;32;20097;-59
2024/04/20 02:41:35;;;;;;;0.30;0.30;;;7.00;99.90;;;;;;4441241;32;20089;-60
2024/04/20 02:44:00;;;;;;;0.40;0.40;;;7.00;99.90;;;;;;4441503;32;20119;-61
2024/04/20 02:46:27;;;;;;;0.52;0.52;;;7.00;99.90;;;;;;4442191;32;20074;-62
2024/04/20 02:48:52;;;;;;;25.65;1.05;;;7.00;99.90;;;;;;4441987;32;20081;-62
2024/04/20 02:51:18;;;;;;;0.70;0.60;;;6.90;99.90;;;;;;4431166;32;20085;-60
2024/04/20 02:53:44;;;;;;;0.20;0.20;;;6.70;99.90;;;;;;4434105;32;20073;-60
2024/04/20 02:56:10;;;;;;;0.20;0.20;;;6.70;99.90;;;;;;4442402;32;20069;-61
2024/04/20 02:58:35;;;;;;;0.20;0.20;;;6.70;99.90;;;;;;4442514;32;20081;-60
2024/04/20 03:01:02;;;;;;;0.28;0.28;;;6.60;99.90;;;;;;4442090;32;20068;-61
2024/04/20 03:03:31;;;;;;;0.20;0.20;;;6.60;99.90;;;;;;4401367;32;20061;-61
2024/04/20 03:05:57;;;;;;;0.30;0.30;;;6.60;99.90;;;;;;4420874;32;20134;-61
2024/04/20 03:08:23;;;;;;;0.20;0.20;;;6.50;99.90;;;;;;4430098;32;20176;-60
2024/04/20 03:10:49;;;;;;;0.30;0.30;;;6.50;99.90;;;;;;4442046;32;20081;-61
2024/04/20 03:13:15;;;;;;;0.30;0.30;;;6.50;99.90;;;;;;4417585;32;20072;-61
2024/04/20 03:15:41;;;;;;;0.30;0.30;;;6.60;99.90;;;;;;4438899;32;20073;-60
2024/04/20 03:18:07;;;;;;;0.20;0.20;;;6.60;99.90;;;;;;4429961;32;20065;-58
2024/04/20 03:20:34;;;;;;;0.20;0.20;;;6.50;99.90;;;;;;4428607;32;20069;-61
2024/04/20 03:22:59;;;;;;;0.20;0.20;;;6.50;99.90;;;;;;4433559;32;20205;-60
2024/04/20 03:25:25;;;;;;;0.28;0.28;;;6.40;99.90;;;;;;4441738;32;20105;-61
2024/04/20 03:27:51;;;;;;;0.30;0.30;;;6.40;99.90;;;;;;4442220;32;20053;-61
2024/04/20 03:30:17;;;;;;;0.30;0.30;;;6.40;99.90;;;;;;4430702;32;20130;-60
2024/04/20 03:32:43;;;;;;;2.37;1.48;;;6.30;99.90;;;;;;4432105;32;20069;-60
2024/04/20 03:35:08;;;;;;;0.20;0.20;;;6.30;99.90;;;;;;4441877;32;20081;-60
2024/04/20 03:37:34;;;;;;;0.35;0.35;;;6.30;99.90;;;;;;4442738;32;20457;-60
2024/04/20 03:39:59;;;;;;;0.20;0.20;;;6.30;99.90;;;;;;4444010;32;20069;-60
2024/04/20 03:42:26;;;;;;;0.30;0.30;;;6.20;99.90;;;;;;4441737;32;20077;-61
2024/04/20 03:44:51;;;;;;;0.20;0.20;;;6.20;99.90;;;;;;4441887;32;20540;-60
2024/04/20 03:47:17;;;;;;;0.30;0.30;;;6.20;99.90;;;;;;4443736;32;20074;-60
2024/04/20 03:49:43;;;;;;;0.20;0.20;;;6.30;99.90;;;;;;4442255;32;20085;-62
2024/04/20 03:52:09;;;;;;;1.75;1.25;;;6.30;99.90;;;;;;4441111;32;20061;-60
2024/04/20 03:54:34;;;;;;;0.30;0.30;;;6.20;99.90;;;;;;4432585;32;20524;-60
2024/04/20 03:57:00;;;;;;;0.20;0.20;;;6.10;99.90;;;;;;4440984;32;20082;-60
2024/04/20 03:59:25;;;;;;;0.30;0.30;;;6.10;99.90;;;;;;4441526;32;20454;-60
2024/04/20 04:01:52;;;;;;;0.25;0.25;;;6.00;99.90;;;;;;4442537;32;20540;-59
2024/04/20 04:04:17;;;;;;;0.20;0.20;;;6.00;99.90;;;;;;4438711;32;20069;-61
2024/04/20 04:06:43;;;;;;;0.25;0.25;;;6.10;99.90;;;;;;4441524;32;20114;-60
2024/04/20 04:09:08;;;;;;;0.20;0.20;;;6.10;99.90;;;;;;4440290;32;20556;-60
2024/04/20 04:11:34;;;;;;;0.28;0.28;;;6.10;99.90;;;;;;4430929;32;20069;-60
2024/04/20 04:14:00;;;;;;;0.30;0.30;;;6.10;99.90;;;;;;4441541;32;20090;-61
2024/04/20 04:16:25;;;;;;;0.20;0.20;;;6.20;99.90;;;;;;4429916;32;20073;-60
2024/04/20 04:18:51;;;;;;;0.20;0.20;;;6.20;99.90;;;;;;4439795;32;20078;-60
2024/04/20 04:21:17;;;;;;;0.25;0.25;;;6.10;99.90;;;;;;4429397;32;20082;-59
2024/04/20 04:23:42;;;;;;;0.20;0.20;;;6.10;99.90;;;;;;4440260;32;20773;-61
2024/04/20 04:26:09;;;;;;;0.20;0.20;;;6.10;99.90;;;;;;4438961;32;20061;-60
2024/04/20 04:28:35;;;;;;;0.20;0.20;;;6.10;99.90;;;;;;4439556;32;20089;-61
2024/04/20 04:31:01;;;;;;;0.20;0.20;;;6.00;99.90;;;;;;4429349;32;20061;-60
2024/04/20 04:33:26;;;;;;;0.30;0.30;;;5.80;99.90;;;;;;4423181;32;20528;-61
2024/04/20 04:36:01;;;;;;;0.37;0.37;;;5.80;99.90;;;;;;4413576;32;20115;-60
2024/04/20 04:38:27;;;;;;;0.22;0.22;;;5.80;99.90;;;;;;4432662;32;20068;-60
2024/04/20 04:40:53;;;;;;;0.30;0.30;;;5.90;99.90;;;;;;4439911;32;20076;-61
2024/04/20 04:43:20;;;;;;;0.20;0.20;;;5.90;99.90;;;;;;4440834;32;20077;-60
2024/04/20 04:45:46;;;;;;;0.37;0.37;;;6.00;99.90;;;;;;4426244;32;20073;-61
2024/04/20 04:48:15;;;;;;;0.30;0.30;;;5.90;99.90;;;;;;4440864;32;20520;-60
2024/04/20 04:50:41;;;;;;;0.28;0.28;;;5.90;99.90;;;;;;4431045;32;20532;-59
2024/04/20 04:53:06;;;;;;;0.32;0.32;;;6.00;99.90;;;;;;4442936;32;20081;-61
2024/04/20 04:55:32;;;;;;;0.20;0.20;;;6.00;99.90;;;;;;4440709;32;20061;-61
2024/04/20 04:57:58;;;;;;;0.30;0.30;;;5.90;99.90;;;;;;4442683;32;20068;-60
2024/04/20 05:00:24;;;;;;;0.30;0.30;;;5.90;99.90;;;;;;4423487;32;20073;-60
2024/04/20 05:02:49;;;;;;;0.20;0.20;;;5.90;99.90;;;;;;4435742;32;20497;-61
2024/04/20 05:05:15;;;;;;;0.30;0.30;;;6.00;99.90;;;;;;4439316;32;20111;-60
2024/04/20 05:07:42;;;;;;;0.20;0.20;;;6.10;99.90;;;;;;4441678;32;20069;-61
2024/04/20 05:10:08;;;;;;;0.30;0.30;;;6.00;99.90;;;;;;4441119;32;20552;-61
2024/04/20 05:12:34;;;;;;;0.20;0.20;;;6.00;99.90;;;;;;4435262;32;20120;-61
2024/04/20 05:15:00;;;;;;;0.20;0.20;;;6.10;99.90;;;;;;4441656;32;20061;-62
2024/04/20 05:17:25;;;;;;;0.20;0.20;;;5.90;99.90;;;;;;4434482;32;20093;-62
2024/04/20 05:19:52;;;;;;;0.20;0.20;;;6.00;99.90;;;;;;4441346;32;20555;-60
2024/04/20 05:22:18;;;;;;;0.30;0.30;;;6.00;99.90;;;;;;4429775;32;20072;-62
2024/04/20 05:24:43;;;;;;;0.20;0.20;;;5.90;99.90;;;;;;4441214;32;20128;-62
2024/04/20 05:27:09;;;;;;;0.30;0.30;;;5.90;99.90;;;;;;4430396;32;20164;-61
2024/04/20 05:29:35;;;;;;;0.37;0.37;;;6.00;99.90;;;;;;4437910;32;20080;-62
2024/04/20 05:32:00;;;;;;;0.30;0.30;;;6.00;99.90;;;;;;4439865;32;20537;-61
2024/04/20 05:34:26;;;;;;;0.88;0.62;;;6.00;99.90;;;;;;4426781;32;20078;-60
2024/04/20 05:36:52;;;;;;;0.40;0.40;;;6.00;99.90;;;;;;4440591;32;20076;-62
2024/04/20 05:39:18;;;;;;;0.28;0.28;;;5.90;99.90;;;;;;4439127;32;20130;-61
2024/04/20 05:41:44;;;;;;;0.30;0.30;;;5.90;99.90;;;;;;4416727;32;20076;-61
2024/04/20 05:44:10;;;;;;;0.30;0.30;;;6.00;99.90;;;;;;4430144;32;20068;-60
2024/04/20 05:46:35;;;;;;;0.30;0.30;;;6.00;99.90;;;;;;4439450;32;20124;-62
2024/04/20 05:49:01;;;;;;;0.40;0.40;;;6.00;99.90;;;;;;4439668;32;20800;-61
2024/04/20 05:51:27;;;;;;;0.30;0.30;;;6.10;99.90;;;;;;4441189;32;20077;-61
2024/04/20 05:53:52;;;;;;;0.20;0.20;;;6.10;99.90;;;;;;4440212;32;20097;-62
2024/04/20 05:56:18;;;;;;;0.30;0.30;;;6.10;99.90;;;;;;4440417;32;20087;-61
2024/04/20 05:58:46;;;;;;;0.30;0.30;;;6.10;99.90;;;;;;4426327;32;20081;-61
2024/04/20 06:01:12;;;;;;;0.20;0.20;;;6.10;99.90;;;;;;4416857;32;20060;-62
2024/04/20 06:03:38;;;;;;;0.30;0.30;;;6.00;99.90;;;;;;4429948;32;20140;-61
2024/04/20 06:06:04;;;;;;;0.20;0.20;;;6.00;99.90;;;;;;4440548;32;20085;-60
2024/04/20 06:08:30;;;;;;;0.32;0.32;;;6.10;99.90;;;;;;4438911;32;20105;-62
2024/04/20 06:10:57;;;;;;;0.30;0.30;;;6.00;99.90;;;;;;4439046;32;20145;-62
2024/04/20 06:13:23;;;;;;;0.30;0.30;;;6.00;99.90;;;;;;4428078;32;20115;-61
2024/04/20 06:15:49;;;;;;;0.30;0.30;;;6.00;99.90;;;;;;4432348;32;20164;-61
2024/04/20 06:18:14;;;;;;;0.37;0.37;;;6.10;99.90;;;;;;4440007;32;20533;-60
2024/04/20 06:20:42;;;;;;;0.25;0.25;;;6.10;99.90;;;;;;4430176;32;20135;-65
2024/04/20 06:23:10;;;;;;;0.30;0.30;;;6.10;99.90;;;;;;4424692;32;20614;-64
2024/04/20 06:25:38;;;;;;;0.20;0.20;;;6.10;99.90;;;;;;4431359;32;20469;-59
2024/04/20 06:28:03;;;;;;;0.30;0.30;;;6.00;99.90;;;;;;4441157;32;20433;-59
2024/04/20 06:30:29;;;;;;;0.20;0.20;;;6.10;99.90;;;;;;4428664;32;20081;-61
2024/04/20 06:32:56;;;;;;;0.20;0.20;;;6.10;99.90;;;;;;4438500;32;20155;-61
2024/04/20 06:35:21;;;;;;;0.30;0.30;;;6.10;99.90;;;;;;4439208;32;20125;-61
2024/04/20 06:37:48;;;;;;;0.90;0.77;;;6.10;99.90;;;;;;4436857;32;20069;-62
2024/04/20 06:40:15;;;;;;;0.30;0.30;;;6.20;99.90;;;;;;4439635;32;20080;-60
2024/04/20 06:42:44;;;;;;;0.30;0.30;;;6.30;99.90;;;;;;4439421;32;20081;-60
2024/04/20 06:45:10;;;;;;;0.30;0.30;;;6.30;99.90;;;;;;4424284;32;20066;-60
2024/04/20 06:47:36;;;;;;;0.20;0.20;;;6.40;99.90;;;;;;4426927;32;20193;-61
2024/04/20 06:50:01;;;;;;;0.30;0.30;;;6.30;99.90;;;;;;4430927;32;20561;-61
2024/04/20 06:52:27;;;;;;;0.30;0.30;;;6.30;99.90;;;;;;4441870;32;20077;-59
2024/04/20 06:54:53;;;;;;;0.20;0.20;;;6.30;99.90;;;;;;4439613;32;20069;-61
2024/04/20 06:57:18;;;;;;;0.30;0.30;;;6.40;99.90;;;;;;4438556;32;20060;-60
2024/04/20 06:59:44;;;;;;;0.30;0.30;;;6.30;99.90;;;;;;4438220;32;20074;-61
2024/04/20 07:02:09;;;;;;;0.20;0.20;;;6.40;99.90;;;;;;4439249;32;20077;-60
2024/04/20 07:04:35;;;;;;;0.40;0.40;;;6.50;99.90;;;;;;4437979;32;20538;-60
2024/04/20 07:07:00;;;;;;;0.30;0.30;;;6.50;99.90;;;;;;4440471;32;20116;-60
2024/04/20 07:09:26;;;;;;;0.35;0.35;;;6.50;99.90;;;;;;4438284;32;20065;-60
2024/04/20 07:11:52;;;;;;;0.40;0.40;;;6.50;99.90;;;;;;4438240;32;20124;-61
2024/04/20 07:14:17;;;;;;;1.00;0.75;;;6.60;99.90;;;;;;4434150;32;20116;-60
2024/04/20 07:16:45;;;;;;;0.20;0.20;;;6.60;99.90;;;;;;4436642;32;20061;-60
2024/04/20 07:19:11;;;;;;;1.02;1.00;;;6.60;99.90;;;;;;4436886;32;20182;-62
2024/04/20 07:21:38;;;;;;;0.65;0.65;;;6.60;99.90;;;;;;4438155;32;20085;-60
2024/04/20 07:24:07;;;;;;;0.40;0.40;;;6.60;99.90;;;;;;4425546;32;20118;-61
2024/04/20 07:26:33;;;;;;;0.40;0.40;;;6.70;99.90;;;;;;4428433;32;20080;-61
2024/04/20 07:29:00;;;;;;;0.28;0.28;;;6.90;99.90;;;;;;4441380;32;20093;-62
2024/04/20 07:31:25;;;;;;;8.68;0.68;;;7.00;99.90;;;;;;4441639;32;20065;-62
2024/04/20 07:33:52;;;;;;;0.30;0.30;;;7.20;99.90;;;;;;4439393;32;20857;-63
2024/04/20 07:36:18;;;;;;;0.20;0.20;;;7.30;99.90;;;;;;4440330;32;20089;-63
2024/04/20 07:38:44;;;;;;;0.25;0.25;;;7.40;99.90;;;;;;4439906;32;20437;-62
2024/04/20 07:41:10;;;;;;;0.32;0.32;;;7.40;99.90;;;;;;4441774;32;20228;-63
2024/04/20 07:43:35;;;;;;;0.20;0.20;;;7.30;99.90;;;;;;4439419;32;20081;-60
2024/04/20 07:46:01;;;;;;;1.40;0.50;;;7.30;99.90;;;;;;4440740;32;20142;-60
2024/04/20 07:48:26;;;;;;;0.28;0.28;;;7.30;99.90;;;;;;4442337;32;20135;-61
2024/04/20 07:50:52;;;;;;;0.60;0.60;;;7.30;99.90;;;;;;4441674;32;20081;-61
2024/04/20 07:53:19;;;;;;;1.25;0.73;;;7.20;99.90;;;;;;4437795;32;20065;-61
2024/04/20 07:55:44;;;;;;;3.10;1.10;;;7.30;99.90;;;;;;4436796;32;20528;-61
2024/04/20 07:58:10;;;;;;;0.30;0.30;;;7.40;99.90;;;;;;4442720;32;20135;-59
2024/04/20 08:00:35;;;;;;;0.30;0.30;;;7.50;99.90;;;;;;4431876;32;20069;-60
2024/04/20 08:03:01;;;;;;;0.55;0.55;;;7.40;99.90;;;;;;4440878;32;20077;-61
2024/04/20 08:05:27;;;;;;;0.30;0.30;;;7.50;99.90;;;;;;4430497;32;20091;-62
2024/04/20 08:07:52;;;;;;;0.30;0.30;;;7.40;99.90;;;;;;4441535;32;20057;-62
2024/04/20 08:10:18;;;;;;;0.30;0.30;;;7.40;99.90;;;;;;4440861;32;20492;-62
2024/04/20 08:12:43;;;;;;;0.40;0.40;;;7.40;99.90;;;;;;4442370;32;20803;-62
2024/04/20 08:15:09;;;;;;;0.30;0.30;;;7.40;99.90;;;;;;4427255;32;20077;-62
2024/04/20 08:17:35;;;;;;;0.20;0.20;;;7.40;99.90;;;;;;4441510;32;20138;-62
2024/04/20 08:20:01;;;;;;;0.30;0.30;;;7.50;99.90;;;;;;4441268;32;20069;-62
2024/04/20 08:22:27;;;;;;;3.42;1.25;;;7.60;99.90;;;;;;4441786;32;20072;-61
2024/04/20 08:24:52;;;;;;;0.20;0.20;;;7.80;99.90;;;;;;4440930;32;20080;-61
2024/04/20 08:27:20;;;;;;;0.22;0.22;;;7.90;99.90;;;;;;4442159;32;20131;-63
2024/04/20 08:29:45;;;;;;;0.20;0.20;;;8.00;99.90;;;;;;4441924;32;20068;-60
2024/04/20 08:32:11;;;;;;;0.47;0.47;;;8.00;99.90;;;;;;4442863;32;20466;-62
2024/04/20 08:34:36;;;;;;;0.30;0.30;;;8.00;99.90;;;;;;4441029;32;20081;-62
2024/04/20 08:37:02;;;;;;;0.57;0.52;;;8.20;99.90;;;;;;4439469;32;20068;-62
2024/04/20 08:39:28;;;;;;;0.30;0.30;;;8.30;99.90;;;;;;4438670;32;20102;-62
2024/04/20 08:42:07;;;;;;;0.30;0.30;;;8.40;99.90;;;;;;4440142;32;20068;-62
2024/04/20 08:44:34;;;;;;;0.30;0.30;;;8.40;99.90;;;;;;4415794;32;20073;-62
2024/04/20 08:47:02;;;;;;;0.75;0.50;;;8.60;99.90;;;;;;4431877;32;20470;-60
2024/04/20 08:49:29;;;;;;;0.20;0.20;;;8.40;99.90;;;;;;4438597;32;20061;-61
2024/04/20 08:51:55;;;;;;;0.45;0.37;;;8.30;99.90;;;;;;4429431;32;20439;-61
2024/04/20 08:54:22;;;;;;;0.20;0.20;;;7.90;99.90;;;;;;4433506;32;20193;-62
2024/04/20 08:56:47;;;;;;;0.68;0.68;;;7.80;99.90;;;;;;4432815;32;20093;-61
2024/04/20 08:59:13;;;;;;;0.20;0.20;;;7.50;99.90;;;;;;4440837;32;20074;-61
2024/04/20 09:01:41;;;;;;;0.30;0.30;;;7.30;99.90;;;;;;4442476;32;20065;-62
2024/04/20 09:04:07;;;;;;;0.30;0.30;;;7.10;99.90;;;;;;4408258;32;20900;-61
2024/04/20 09:06:34;;;;;;;0.30;0.30;;;6.90;99.90;;;;;;4419436;32;20074;-61
2024/04/20 09:09:02;;;;;;;0.40;0.40;;;6.70;99.90;;;;;;4395793;32;20093;-61
2024/04/20 09:11:29;;;;;;;0.30;0.30;;;6.80;99.90;;;;;;4430569;32;20061;-62
2024/04/20 09:13:54;;;;;;;0.30;0.30;;;6.90;99.90;;;;;;4442054;32;20064;-62
2024/04/20 09:16:20;;;;;;;0.30;0.30;;;7.00;99.90;;;;;;4440065;32;20127;-62
2024/04/20 09:18:45;;;;;;;0.28;0.28;;;7.10;99.90;;;;;;4440968;32;20060;-62
2024/04/20 09:21:11;;;;;;;0.30;0.30;;;7.40;99.90;;;;;;4441637;32;20092;-61
2024/04/20 09:23:38;;;;;;;0.30;0.30;;;7.40;99.90;;;;;;4441533;32;20064;-63
2024/04/20 09:26:04;;;;;;;0.40;0.40;;;7.50;99.90;;;;;;4441121;32;20544;-62
2024/04/20 09:28:32;;;;;;;0.50;0.50;;;7.80;99.90;;;;;;4436669;32;20374;-62
2024/04/20 09:30:58;;;;;;;0.30;0.30;;;7.80;99.90;;;;;;4428080;32;20081;-61
2024/04/20 09:33:24;;;;;;;0.20;0.20;;;7.80;99.90;;;;;;4439944;32;20077;-62
2024/04/20 09:35:49;;;;;;;0.40;0.40;;;8.00;99.90;;;;;;4430533;32;20540;-62
2024/04/20 09:38:15;;;;;;;0.30;0.30;;;8.00;99.90;;;;;;4440033;32;20619;-61
2024/04/20 09:40:41;;;;;;;0.30;0.30;;;8.10;99.90;;;;;;4430394;32;20077;-62
2024/04/20 09:43:06;;;;;;;0.30;0.30;;;8.10;99.90;;;;;;4431077;32;20144;-63
2024/04/20 09:45:36;;;;;;;0.40;0.40;;;8.10;99.90;;;;;;4440597;32;20123;-62
2024/04/20 09:48:06;;;;;;;0.30;0.30;;;8.30;99.90;;;;;;4422107;32;20053;-62
2024/04/20 09:50:31;;;;;;;0.30;0.30;;;8.40;99.90;;;;;;4429877;32;20053;-62
2024/04/20 09:53:27;;;;;;;0.75;0.50;;;8.50;99.90;;;;;;4430330;32;21224;-62
2024/04/20 09:55:53;;;;;;;0.30;0.30;;;8.60;99.90;;;;;;4424714;32;20573;-60
2024/04/20 09:58:20;;;;;;;0.25;0.25;;;8.60;99.90;;;;;;4440277;32;20053;-62
2024/04/20 10:00:47;;;;;;;0.30;0.30;;;8.50;99.90;;;;;;4440075;32;20134;-62
2024/04/20 10:03:13;;;;;;;0.52;0.52;;;8.40;99.90;;;;;;4440717;32;20138;-61
2024/04/20 10:05:39;;;;;;;0.30;0.30;;;8.30;99.90;;;;;;4430666;32;20069;-64
2024/04/20 10:08:08;;;;;;;0.50;0.50;;;8.30;99.90;;;;;;4438107;32;20221;-61
2024/04/20 10:10:34;;;;;;;0.32;0.32;;;8.40;99.90;;;;;;4429759;32;20536;-61
2024/04/20 10:13:02;;;;;;;0.32;0.32;;;8.30;99.90;;;;;;4440445;32;20085;-61
2024/04/20 10:15:30;;;;;;;0.40;0.40;;;8.30;99.90;;;;;;4440518;32;20484;-60
2024/04/20 10:17:57;;;;;;;0.20;0.20;;;8.20;99.90;;;;;;4440754;32;20076;-61
2024/04/20 10:20:38;;;;;;;0.40;0.40;;;8.20;99.90;;;;;;4426239;32;20061;-61
2024/04/20 10:23:20;;;;;;;0.30;0.30;;;8.10;99.90;;;;;;4428604;32;20078;-60
2024/04/20 10:25:47;;;;;;;0.30;0.30;;;8.30;99.90;;;;;;4427397;32;20505;-60
2024/04/20 10:28:35;;;;;;;0.60;0.60;;;8.40;99.90;;;;;;4430908;32;20090;-61
2024/04/20 10:31:02;;;;;;;0.30;0.30;;;8.60;99.90;;;;;;4430592;32;20416;-60
2024/04/20 10:33:31;;;;;;;0.40;0.40;;;9.10;99.90;;;;;;4441582;32;20065;-60
2024/04/20 10:36:02;;;;;;;0.30;0.30;;;9.80;99.90;;;;;;4427859;32;20120;-61
2024/04/20 10:38:31;;;;;;;0.30;0.30;;;10.30;99.90;;;;;;4440262;32;20069;-61
2024/04/20 10:40:57;;;;;;;0.30;0.30;;;10.40;99.90;;;;;;4439718;32;20149;-61
2024/04/20 10:43:26;;;;;;;0.20;0.20;;;10.30;99.90;;;;;;4442059;32;20069;-60
2024/04/20 10:46:08;;;;;;;0.35;0.35;;;10.80;99.90;;;;;;4434736;32;20110;-60
2024/04/20 10:48:35;;;;;;;0.30;0.30;;;11.00;99.90;;;;;;4429942;32;20624;-60
2024/04/20 10:51:02;;;;;;;0.60;0.60;;;11.30;99.90;;;;;;4439747;32;20765;-60
2024/04/20 10:53:28;;;;;;;0.30;0.30;;;11.60;99.90;;;;;;4439210;32;20073;-60
2024/04/20 10:55:56;;;;;;;0.25;0.25;;;12.00;99.90;;;;;;4440636;32;20076;-60
2024/04/20 10:58:23;;;;;;;0.20;0.20;;;12.00;99.90;;;;;;4432215;32;20111;-60
2024/04/20 11:00:49;;;;;;;0.37;0.37;;;12.30;99.90;;;;;;4421046;32;20072;-60
2024/04/20 11:03:14;;;;;;;0.37;0.37;;;12.70;99.90;;;;;;4443178;32;20382;-60
2024/04/20 11:05:51;;;;;;;0.30;0.30;;;12.70;99.90;;;;;;4442460;32;20081;-61
2024/04/20 11:08:17;;;;;;;2.25;0.68;;;11.80;99.90;;;;;;4441519;32;20102;-60
2024/04/20 11:10:42;;;;;;;0.40;0.40;;;11.20;99.90;;;;;;4443218;32;20082;-60
2024/04/20 11:13:09;;;;;;;0.30;0.30;;;10.70;99.90;;;;;;4432943;32;20076;-61
2024/04/20 11:15:35;;;;;;;0.40;0.40;;;10.20;99.90;;;;;;4441194;32;20521;-61
2024/04/20 11:18:01;;;;;;;0.30;0.30;;;9.90;99.90;;;;;;4443543;32;20112;-61
2024/04/20 11:20:27;;;;;;;0.22;0.22;;;9.60;99.90;;;;;;4443608;32;20069;-61
2024/04/20 11:22:55;;;;;;;0.40;0.40;;;9.50;99.90;;;;;;4431709;32;20080;-62
2024/04/20 11:25:20;;;;;;;0.22;0.22;;;9.90;99.90;;;;;;4434237;32;20073;-63
2024/04/20 11:27:49;;;;;;;0.20;0.20;;;10.60;99.90;;;;;;4435906;32;20093;-63
2024/04/20 11:30:15;;;;;;;0.35;0.35;;;11.10;99.90;;;;;;4443674;32;20539;-63
2024/04/20 11:32:41;;;;;;;0.68;0.68;;;10.90;99.90;;;;;;4442478;32;20109;-62
2024/04/20 11:35:08;;;;;;;0.40;0.40;;;10.50;99.90;;;;;;4442141;32;20077;-63
2024/04/20 11:37:33;;;;;;;0.40;0.40;;;10.10;99.90;;;;;;4441175;32;20543;-61
2024/04/20 11:40:03;;;;;;;0.30;0.30;;;9.80;99.90;;;;;;4443114;32;20447;-63
2024/04/20 11:42:29;;;;;;;0.32;0.32;;;10.50;99.90;;;;;;4421271;32;20069;-63
2024/04/20 11:44:55;;;;;;;0.35;0.35;;;11.50;99.90;;;;;;4442687;32;20574;-62
2024/04/20 11:47:21;;;;;;;0.47;0.47;;;12.20;99.90;;;;;;4443647;32;20076;-62
2024/04/20 11:49:50;;;;;;;0.40;0.40;;;12.10;99.90;;;;;;4440553;32;21169;-63
2024/04/20 11:54:25;;;;;;;0.40;0.40;;;11.50;99.90;;;;;;4432152;32;20164;-61
2024/04/20 11:55:11;;;;;;;0.30;0.30;;;11.20;99.90;;;;;;4428877;32;119749;-62
2024/04/20 11:57:37;;;;;;;0.50;0.50;;;11.30;99.90;;;;;;4429198;32;20553;-62
2024/04/20 12:00:05;;;;;;;0.30;0.30;;;11.90;99.90;;;;;;4431649;32;20473;-62
2024/04/20 12:02:32;;;;;;;0.40;0.40;;;12.60;99.90;;;;;;4432576;32;20155;-62
2024/04/20 12:04:59;;;;;;;0.88;0.80;;;13.00;99.90;;;;;;4440616;32;20069;-63
2024/04/20 12:07:27;;;;;;;0.40;0.40;;;13.10;99.90;;;;;;4432013;32;20223;-62
2024/04/20 12:09:52;;;;;;;1.40;0.60;;;13.60;99.90;;;;;;4441284;32;20734;-62
2024/04/20 12:12:18;;;;;;;0.88;0.52;;;13.20;99.90;;;;;;4431036;32;20101;-62
2024/04/20 12:14:44;;;;;;;0.40;0.40;;;12.50;99.90;;;;;;4439890;32;20087;-62
2024/04/20 12:17:09;;;;;;;0.30;0.30;;;12.10;99.90;;;;;;4440144;32;20064;-61
2024/04/20 12:19:36;;;;;;;0.30;0.30;;;11.70;99.90;;;;;;4441585;32;20817;-61
2024/04/20 12:22:02;;;;;;;0.80;0.40;;;11.70;99.90;;;;;;4441560;32;20365;-61
2024/04/20 12:24:28;;;;;;;5.37;0.60;;;11.60;99.90;;;;;;4443659;32;20053;-62
2024/04/20 12:26:53;;;;;;;0.30;0.30;;;11.40;99.90;;;;;;4434175;32;20077;-62
2024/04/20 12:29:20;;;;;;;0.55;0.50;;;11.20;99.90;;;;;;4440440;32;20116;-60
2024/04/20 12:31:46;;;;;;;0.40;0.40;;;11.60;99.90;;;;;;4428705;32;20057;-61
2024/04/20 12:34:12;;;;;;;0.47;0.47;;;12.40;99.90;;;;;;4429667;32;20123;-61
2024/04/20 12:36:39;;;;;;;0.40;0.40;;;13.50;97.70;;;;;;4442024;32;20454;-61
2024/04/20 12:39:06;;;;;;;0.45;0.45;;;14.20;96.20;;;;;;4431501;32;20062;-61
2024/04/20 12:41:32;;;;;;;0.50;0.50;;;14.10;95.40;;;;;;4441390;32;20107;-62
2024/04/20 12:43:58;;;;;;;0.30;0.30;;;14.20;94.30;;;;;;4429107;32;20068;-61
2024/04/20 12:46:24;;;;;;;0.43;0.43;;;14.00;95.20;;;;;;4430543;32;20148;-61
2024/04/20 12:48:50;;;;;;;0.30;0.30;;;13.40;94.00;;;;;;4441516;32;20061;-62
2024/04/20 12:51:17;;;;;;;0.30;0.30;;;12.70;94.30;;;;;;4440473;32;20124;-62